createdAt,value
2023-09-06T00:01:00.841Z,10.75
2023-09-06T00:06:02.669Z,8.57
2023-09-06T00:11:07.419Z,10.07
2023-09-06T00:16:09.096Z,9.27
2023-09-06T00:21:10.856Z,9.48
2023-09-06T00:26:12.560Z,9.35
2023-09-06T00:31:14.437Z,7.70
2023-09-06T00:36:16.189Z,11.32
2023-09-06T00:41:18.848Z,12.02
2023-09-06T00:46:20.899Z,10.45
2023-09-06T00:51:22.646Z,9.07
2023-09-06T00:56:24.297Z,9.57
2023-09-06T01:01:26.160Z,11.23
2023-09-06T01:06:29.774Z,11.70
2023-09-06T01:11:33.136Z,10.30
2023-09-06T01:16:41.575Z,9.73
2023-09-06T01:21:49.927Z,9.85
2023-09-06T01:26:51.858Z,11.25
2023-09-06T01:31:53.659Z,9.52
2023-09-06T01:36:55.450Z,10.90
2023-09-06T01:41:57.249Z,10.50
2023-09-06T01:46:59.020Z,8.70
2023-09-06T01:52:01.135Z,11.60
2023-09-06T01:57:02.852Z,11.93
2023-09-06T02:02:05.611Z,10.85
2023-09-06T02:07:07.349Z,13.88
2023-09-06T02:12:09.143Z,12.40
2023-09-06T02:17:10.878Z,10.02
2023-09-06T02:22:12.757Z,11.38
2023-09-06T02:27:14.915Z,10.98
2023-09-06T02:32:19.940Z,13.57
2023-09-06T02:37:21.670Z,10.13
2023-09-06T02:42:23.642Z,10.05
2023-09-06T02:47:29.875Z,12.75
2023-09-06T02:52:34.305Z,11.10
2023-09-06T02:57:36.187Z,11.30
2023-09-06T03:02:37.897Z,10.57
2023-09-06T03:07:41.618Z,11.07
2023-09-06T03:12:45.099Z,10.95
2023-09-06T03:17:48.308Z,10.63
2023-09-06T03:22:51.400Z,11.45
2023-09-06T03:28:01.437Z,13.68
2023-09-06T03:33:07.463Z,10.65
2023-09-06T03:38:12.192Z,12.07
2023-09-06T03:43:17.152Z,11.75
2023-09-06T03:48:21.799Z,10.48
2023-09-06T03:53:27.772Z,12.40
2023-09-06T03:58:30.626Z,11.23
2023-09-06T04:03:33.535Z,12.07
2023-09-06T04:08:37.681Z,10.20
2023-09-06T04:13:40.488Z,10.45
2023-09-06T04:18:43.615Z,10.95
2023-09-06T04:23:46.041Z,11.40
2023-09-06T04:28:51.188Z,9.20
2023-09-06T04:33:55.123Z,9.95
2023-09-06T04:38:59.906Z,10.40
2023-09-06T04:44:04.089Z,10.40
2023-09-06T04:49:06.124Z,9.13
2023-09-06T04:54:10.785Z,9.35
2023-09-06T04:59:14.003Z,9.82
2023-09-06T05:04:16.173Z,13.82
2023-09-06T05:09:20.549Z,10.25
2023-09-06T05:14:22.699Z,11.23
2023-09-06T05:19:28.785Z,10.95
2023-09-06T05:24:31.234Z,9.07
2023-09-06T05:29:33.849Z,12.07
2023-09-06T05:34:35.914Z,11.88
2023-09-06T05:39:41.174Z,7.00
2023-09-06T05:44:44.165Z,8.63
2023-09-06T05:49:48.025Z,9.57
2023-09-06T05:54:53.869Z,8.57
2023-09-06T05:59:58.899Z,9.18
2023-09-06T06:05:00.683Z,7.15
2023-09-06T06:10:02.569Z,6.68
2023-09-06T06:15:04.642Z,7.10
2023-09-06T06:20:12.262Z,7.18
2023-09-06T06:25:14.277Z,5.13
2023-09-06T06:30:16.100Z,6.57
2023-09-06T06:35:17.798Z,6.88
2023-09-06T06:40:19.597Z,7.93
2023-09-06T06:45:21.301Z,7.15
2023-09-06T06:50:23.550Z,5.65
2023-09-06T06:55:25.361Z,5.75
2023-09-06T07:00:35.607Z,5.78
2023-09-06T07:05:37.333Z,5.45
2023-09-06T07:10:39.058Z,5.85
2023-09-06T07:15:41.274Z,6.72
2023-09-06T07:20:43.544Z,5.93
2023-09-06T07:25:45.972Z,5.82
2023-09-06T07:30:47.663Z,5.95
2023-09-06T07:35:49.291Z,6.28
2023-09-06T07:41:04.648Z,6.32
2023-09-06T07:46:11.145Z,5.38
2023-09-06T07:51:13.425Z,8.25
2023-09-06T07:56:15.156Z,8.82
2023-09-06T08:01:19.460Z,6.00
2023-09-06T08:06:21.611Z,6.10
2023-09-06T08:11:23.444Z,5.75
2023-09-06T08:16:25.236Z,5.55
2023-09-06T08:21:27.106Z,5.72
2023-09-06T08:26:29.601Z,8.25
2023-09-06T08:31:31.456Z,4.90
2023-09-06T08:36:33.192Z,6.22
2023-09-06T08:41:35.003Z,5.70
2023-09-06T08:46:42.730Z,6.38
2023-09-06T08:51:44.709Z,4.82
2023-09-06T08:56:46.697Z,5.72
2023-09-06T09:01:48.504Z,6.85
2023-09-06T09:06:50.342Z,7.40
2023-09-06T09:11:53.165Z,5.13
2023-09-06T09:16:59.232Z,6.65
2023-09-06T09:22:00.950Z,5.30
2023-09-06T09:27:04.168Z,5.00
2023-09-06T09:32:06.128Z,6.82
2023-09-06T09:37:09.655Z,4.68
2023-09-06T09:42:11.943Z,6.10
2023-09-06T09:47:35.062Z,5.75
2023-09-06T09:52:37.337Z,4.68
2023-09-06T09:57:40.125Z,4.47
2023-09-06T10:02:47.017Z,4.55
2023-09-06T10:07:50.071Z,5.55
2023-09-06T10:12:53.229Z,4.68
2023-09-06T10:17:58.941Z,5.50
2023-09-06T10:23:01.292Z,4.65
2023-09-06T10:28:03.046Z,5.80
2023-09-06T10:33:05.034Z,3.70
2023-09-06T10:38:08.951Z,4.28
2023-09-06T10:43:11.438Z,4.00
2023-09-06T10:48:13.390Z,4.93
2023-09-06T10:53:20.160Z,4.85
2023-09-06T10:58:25.040Z,3.38
2023-09-06T11:03:33.148Z,6.13
2023-09-06T11:08:35.037Z,4.05
2023-09-06T11:13:38.370Z,3.55
2023-09-06T11:18:51.362Z,4.00
2023-09-06T11:23:54.886Z,4.20
2023-09-06T11:29:06.386Z,2.72
2023-09-06T11:34:10.457Z,3.88
2023-09-06T11:39:20.029Z,4.35
2023-09-06T11:44:24.521Z,3.60
2023-09-06T11:49:27.180Z,4.80
2023-09-06T11:54:33.009Z,4.22
2023-09-06T11:59:34.771Z,3.35
2023-09-06T12:04:36.579Z,3.85
2023-09-06T12:09:38.305Z,4.20
2023-09-06T12:14:43.806Z,3.30
2023-09-06T12:19:45.794Z,4.47
2023-09-06T12:24:48.758Z,4.72
2023-09-06T12:29:50.680Z,5.07
2023-09-06T12:34:53.750Z,5.32
2023-09-06T12:39:55.853Z,4.20
2023-09-06T12:44:57.619Z,3.83
2023-09-06T12:50:01.045Z,4.45
2023-09-06T12:55:05.894Z,4.20
2023-09-06T13:00:08.778Z,4.40
2023-09-06T13:05:11.527Z,4.07
2023-09-06T13:10:13.843Z,3.85
2023-09-06T13:15:15.605Z,3.17
2023-09-06T13:20:17.343Z,3.10
2023-09-06T13:25:19.531Z,3.80
2023-09-06T13:30:21.580Z,4.22
2023-09-06T13:35:23.626Z,4.57
2023-09-06T13:40:25.399Z,3.85
2023-09-06T13:45:30.111Z,4.15
2023-09-06T13:50:32.334Z,5.10
2023-09-06T13:55:34.096Z,4.10
2023-09-06T14:00:35.886Z,4.45
2023-09-06T14:05:38.282Z,3.55
2023-09-06T14:10:40.069Z,6.20
2023-09-06T14:15:41.782Z,4.30
2023-09-06T14:20:43.563Z,5.32
2023-09-06T14:25:45.304Z,4.30
2023-09-06T14:30:47.042Z,4.05
2023-09-06T14:35:48.684Z,5.18
2023-09-06T14:40:50.407Z,3.90
2023-09-06T14:45:52.258Z,5.07
2023-09-06T14:51:04.659Z,3.45
2023-09-06T14:56:07.243Z,4.40
2023-09-06T15:01:09.869Z,4.07
2023-09-06T15:06:13.793Z,4.72
2023-09-06T15:11:15.481Z,4.18
2023-09-06T15:16:17.252Z,4.28
2023-09-06T15:21:18.944Z,3.45
2023-09-06T15:26:22.423Z,4.57
2023-09-06T15:31:25.318Z,3.10
2023-09-06T15:36:31.223Z,4.35
2023-09-06T15:41:33.762Z,4.35
2023-09-06T15:46:36.685Z,4.43
2023-09-06T15:51:38.497Z,3.85
2023-09-06T15:56:40.357Z,3.97
2023-09-06T16:01:42.925Z,4.18
2023-09-06T16:06:44.727Z,4.72
2023-09-06T16:11:46.404Z,4.45
2023-09-06T16:16:48.164Z,3.85
2023-09-06T16:21:49.904Z,6.00
2023-09-06T16:26:55.962Z,5.57
2023-09-06T16:31:57.872Z,3.42
2023-09-06T16:37:00.066Z,4.80
2023-09-06T16:42:02.306Z,4.82
2023-09-06T16:47:06.108Z,3.45
2023-09-06T16:52:09.067Z,5.15
2023-09-06T16:57:10.960Z,3.47
2023-09-06T17:02:12.846Z,6.70
2023-09-06T17:07:14.869Z,4.53
2023-09-06T17:12:16.560Z,4.95
2023-09-06T17:17:20.237Z,4.05
2023-09-06T17:22:22.051Z,3.97
2023-09-06T17:27:23.771Z,4.32
2023-09-06T17:32:27.064Z,5.20
2023-09-06T17:37:29.124Z,4.20
2023-09-06T17:42:32.545Z,5.40
2023-09-06T17:47:34.540Z,4.85
2023-09-06T17:52:39.591Z,3.60
2023-09-06T17:57:42.890Z,4.45
2023-09-06T18:02:45.480Z,4.90
2023-09-06T18:07:47.775Z,5.82
2023-09-06T18:12:49.525Z,7.28
2023-09-06T18:17:52.520Z,6.07
2023-09-06T18:22:55.025Z,5.40
2023-09-06T18:27:56.775Z,5.60
2023-09-06T18:32:58.518Z,4.95
2023-09-06T18:38:00.273Z,5.22
2023-09-06T18:43:03.623Z,8.95
2023-09-06T18:48:08.409Z,4.80
2023-09-06T18:58:12.853Z,5.93
2023-09-06T19:03:15.099Z,6.97
2023-09-06T19:08:17.514Z,7.05
2023-09-06T19:13:20.083Z,6.60
2023-09-06T19:18:21.750Z,6.85
2023-09-06T19:23:23.536Z,7.78
2023-09-06T19:28:25.511Z,8.10
2023-09-06T19:33:27.958Z,8.30
2023-09-06T19:38:31.334Z,5.22
2023-09-06T19:43:33.266Z,5.90
2023-09-06T19:48:41.194Z,7.00
2023-09-06T19:53:49.080Z,6.72
2023-09-06T19:58:54.283Z,7.13
2023-09-06T20:08:59.094Z,6.53
2023-09-06T20:14:01.274Z,7.72
2023-09-06T20:19:03.529Z,6.97
2023-09-06T20:24:05.546Z,7.80
2023-09-06T20:29:09.817Z,7.30
2023-09-06T20:34:11.720Z,6.82
2023-09-06T20:39:13.705Z,6.65
2023-09-06T20:44:15.382Z,7.55
2023-09-06T20:49:17.731Z,6.88
2023-09-06T20:54:19.463Z,8.70
2023-09-06T20:59:21.209Z,8.55
2023-09-06T21:04:23.010Z,7.50
2023-09-06T21:09:25.074Z,11.68
2023-09-06T21:14:26.742Z,10.32
2023-09-06T21:19:30.127Z,9.80
2023-09-06T21:24:32.290Z,8.48
2023-09-06T21:29:33.968Z,9.77
2023-09-06T21:34:35.702Z,8.07
2023-09-06T21:39:37.444Z,9.75
2023-09-06T21:44:39.594Z,9.18
2023-09-06T21:49:41.370Z,8.98
2023-09-06T21:54:43.137Z,9.65
2023-09-06T21:59:44.983Z,9.25
2023-09-06T22:04:46.723Z,8.65
2023-09-06T22:10:07.816Z,8.85
2023-09-06T22:15:28.532Z,9.45
2023-09-06T22:20:32.913Z,9.35
2023-09-06T22:25:35.400Z,7.60
2023-09-06T22:30:43.706Z,8.48
2023-09-06T22:35:45.625Z,8.43
2023-09-06T22:40:47.408Z,9.07
2023-09-06T22:45:51.286Z,8.45
2023-09-06T22:50:53.095Z,8.05
2023-09-06T22:55:54.903Z,7.43
2023-09-06T23:01:04.712Z,7.82
2023-09-06T23:06:11.451Z,15.48
2023-09-06T23:11:16.760Z,8.75
2023-09-06T23:16:18.528Z,9.43
2023-09-06T23:21:23.224Z,9.40
2023-09-06T23:26:32.463Z,9.85
2023-09-06T23:31:38.233Z,8.13
2023-09-06T23:36:40.188Z,9.90
2023-09-06T23:41:42.865Z,9.55
2023-09-06T23:46:44.772Z,9.65
2023-09-06T23:51:46.639Z,10.63
2023-09-06T23:56:48.402Z,11.15
